createdAt,value
2022-10-07T00:00:48.139Z,11.22
2022-10-07T00:03:15.726Z,11.24
2022-10-07T00:05:43.333Z,11.20
2022-10-07T00:08:10.895Z,11.22
2022-10-07T00:10:39.992Z,11.26
2022-10-07T00:13:10.495Z,11.20
2022-10-07T00:15:38.079Z,11.25
2022-10-07T00:18:05.476Z,11.23
2022-10-07T00:20:37.714Z,11.21
2022-10-07T00:23:05.066Z,11.22
2022-10-07T00:25:32.339Z,11.19
2022-10-07T00:27:59.898Z,11.21
2022-10-07T00:30:28.727Z,11.22
2022-10-07T00:32:56.071Z,11.24
2022-10-07T00:35:23.460Z,11.18
2022-10-07T00:37:50.689Z,11.09
2022-10-07T00:40:18.654Z,11.07
2022-10-07T00:42:46.048Z,11.07
2022-10-07T00:45:15.103Z,11.04
2022-10-07T00:47:47.437Z,10.99
2022-10-07T00:50:19.682Z,11.01
2022-10-07T00:52:52.123Z,10.93
2022-10-07T00:55:22.739Z,10.96
2022-10-07T00:57:51.734Z,10.89
2022-10-07T01:00:21.945Z,10.88
2022-10-07T01:02:50.994Z,10.84
2022-10-07T01:05:19.574Z,10.81
2022-10-07T01:07:50.545Z,10.81
2022-10-07T01:10:20.450Z,10.76
2022-10-07T01:12:57.586Z,10.74
2022-10-07T01:15:34.867Z,10.72
2022-10-07T01:18:11.746Z,10.61
2022-10-07T01:20:45.570Z,10.72
2022-10-07T01:23:40.700Z,10.71
2022-10-07T01:26:33.762Z,10.63
2022-10-07T01:29:05.054Z,10.66
2022-10-07T01:31:39.043Z,10.53
2022-10-07T01:34:07.827Z,10.58
2022-10-07T01:36:37.206Z,10.59
2022-10-07T01:39:09.377Z,10.59
2022-10-07T01:41:39.170Z,10.58
2022-10-07T01:44:12.028Z,10.57
2022-10-07T01:46:39.458Z,10.56
2022-10-07T01:49:09.195Z,10.56
2022-10-07T01:51:43.174Z,10.57
2022-10-07T01:54:27.844Z,10.56
2022-10-07T01:57:07.624Z,10.50
2022-10-07T02:00:05.590Z,10.51
2022-10-07T02:02:56.664Z,10.43
2022-10-07T02:05:33.587Z,10.50
2022-10-07T02:08:20.340Z,10.50
2022-10-07T02:11:00.521Z,10.42
2022-10-07T02:13:35.103Z,10.35
2022-10-07T02:16:11.390Z,10.31
2022-10-07T02:18:41.788Z,10.32
2022-10-07T02:21:10.735Z,10.20
2022-10-07T02:23:40.199Z,10.25
2022-10-07T02:26:11.118Z,10.28
2022-10-07T02:28:42.096Z,10.29
2022-10-07T02:31:18.232Z,10.32
2022-10-07T02:33:47.410Z,10.34
2022-10-07T02:36:22.433Z,10.33
2022-10-07T02:38:49.876Z,10.30
2022-10-07T02:41:33.837Z,10.25
2022-10-07T02:44:17.436Z,10.28
2022-10-07T02:46:52.220Z,10.20
2022-10-07T02:49:23.485Z,10.24
2022-10-07T02:51:57.333Z,10.23
2022-10-07T02:54:29.723Z,10.22
2022-10-07T02:57:00.398Z,10.22
2022-10-07T02:59:29.259Z,10.22
2022-10-07T03:02:01.404Z,10.23
2022-10-07T03:04:28.924Z,10.23
2022-10-07T03:06:58.953Z,10.24
2022-10-07T03:09:26.598Z,10.23
2022-10-07T03:11:54.732Z,10.24
2022-10-07T03:14:24.786Z,10.23
2022-10-07T03:16:52.366Z,10.23
2022-10-07T03:19:22.482Z,10.18
2022-10-07T03:21:54.337Z,10.14
2022-10-07T03:24:21.816Z,10.11
2022-10-07T03:26:50.316Z,10.11
2022-10-07T03:29:18.861Z,10.10
2022-10-07T03:31:46.722Z,10.10
2022-10-07T03:34:13.900Z,10.08
2022-10-07T03:36:45.600Z,10.06
2022-10-07T03:39:13.711Z,10.03
2022-10-07T03:41:42.337Z,10.02
2022-10-07T03:44:10.072Z,10.03
2022-10-07T03:46:37.546Z,10.00
2022-10-07T03:49:05.102Z,9.97
2022-10-07T03:51:33.101Z,9.98
2022-10-07T03:54:03.359Z,9.94
2022-10-07T03:56:32.821Z,9.92
2022-10-07T03:59:01.098Z,9.94
2022-10-07T04:01:31.720Z,9.94
2022-10-07T04:04:03.175Z,9.94
2022-10-07T04:06:36.075Z,9.90
2022-10-07T04:09:09.714Z,9.91
2022-10-07T04:11:40.617Z,9.89
2022-10-07T04:14:09.309Z,9.86
2022-10-07T04:16:38.840Z,9.83
2022-10-07T04:19:08.469Z,9.83
2022-10-07T04:21:35.903Z,9.82
2022-10-07T04:24:04.390Z,9.82
2022-10-07T04:26:33.351Z,9.89
2022-10-07T04:29:00.641Z,9.98
2022-10-07T04:31:28.589Z,10.06
2022-10-07T04:34:03.592Z,10.17
2022-10-07T04:36:35.420Z,10.25
2022-10-07T04:39:05.841Z,10.32
2022-10-07T04:41:38.122Z,10.41
2022-10-07T04:44:09.814Z,10.52
2022-10-07T04:46:44.059Z,10.49
2022-10-07T04:49:14.285Z,10.46
2022-10-07T04:51:41.581Z,10.44
2022-10-07T04:54:09.494Z,10.45
2022-10-07T04:56:44.575Z,10.57
2022-10-07T04:59:13.924Z,10.76
2022-10-07T05:01:41.936Z,10.93
2022-10-07T05:04:10.678Z,11.11
2022-10-07T05:06:38.183Z,11.19
2022-10-07T05:09:05.668Z,11.33
2022-10-07T05:11:37.847Z,11.41
2022-10-07T05:14:11.224Z,11.39
2022-10-07T05:16:38.681Z,11.35
2022-10-07T05:19:06.993Z,11.29
2022-10-07T05:21:34.293Z,11.19
2022-10-07T05:24:04.294Z,11.07
2022-10-07T05:26:35.922Z,11.03
2022-10-07T05:29:06.094Z,11.02
2022-10-07T05:31:46.176Z,10.97
2022-10-07T05:34:16.707Z,10.89
2022-10-07T05:36:44.390Z,10.89
2022-10-07T05:39:12.551Z,10.91
2022-10-07T05:42:14.905Z,10.95
2022-10-07T05:44:49.996Z,11.05
2022-10-07T05:47:20.421Z,11.05
2022-10-07T05:49:48.873Z,11.04
2022-10-07T05:52:16.495Z,11.03
2022-10-07T05:54:46.792Z,11.00
2022-10-07T05:57:15.476Z,10.99
2022-10-07T05:59:44.264Z,10.94
2022-10-07T06:02:14.640Z,10.96
2022-10-07T06:04:44.752Z,11.08
2022-10-07T06:07:16.995Z,11.24
2022-10-07T06:10:06.700Z,11.38
2022-10-07T06:12:53.631Z,11.51
2022-10-07T06:15:20.979Z,11.72
2022-10-07T06:17:49.664Z,11.89
2022-10-07T06:20:21.193Z,12.00
2022-10-07T06:22:52.489Z,12.21
2022-10-07T06:25:20.786Z,12.24
2022-10-07T06:27:53.841Z,12.31
2022-10-07T06:30:22.839Z,12.43
2022-10-07T06:32:50.394Z,12.51
2022-10-07T06:35:18.253Z,12.67
2022-10-07T06:37:47.727Z,12.73
2022-10-07T06:40:15.612Z,12.76
2022-10-07T06:42:43.236Z,12.80
2022-10-07T06:45:43.508Z,12.93
2022-10-07T06:48:12.500Z,12.88
2022-10-07T06:50:40.073Z,12.86
2022-10-07T06:53:09.005Z,12.88
2022-10-07T06:55:37.869Z,12.83
2022-10-07T06:58:11.233Z,12.62
2022-10-07T07:00:40.656Z,12.44
2022-10-07T07:03:07.902Z,12.33
2022-10-07T07:05:41.402Z,12.22
2022-10-07T07:08:18.691Z,12.07
2022-10-07T07:10:46.743Z,12.00
2022-10-07T07:13:15.400Z,12.08
2022-10-07T07:15:42.859Z,12.18
2022-10-07T07:18:11.709Z,12.29
2022-10-07T07:20:40.061Z,12.24
2022-10-07T07:23:11.160Z,12.16
2022-10-07T07:25:40.678Z,12.23
2022-10-07T07:28:08.368Z,12.30
2022-10-07T07:30:37.197Z,12.34
2022-10-07T07:33:05.570Z,12.21
2022-10-07T07:35:37.217Z,12.11
2022-10-07T07:38:04.509Z,12.17
2022-10-07T07:40:32.815Z,12.22
2022-10-07T07:43:02.581Z,12.21
2022-10-07T07:45:33.268Z,12.06
2022-10-07T07:48:00.819Z,12.06
2022-10-07T07:50:28.508Z,12.06
2022-10-07T07:53:00.197Z,12.07
2022-10-07T07:55:27.782Z,12.05
2022-10-07T07:57:55.519Z,12.01
2022-10-07T08:00:24.490Z,12.05
2022-10-07T08:03:02.811Z,12.09
2022-10-07T08:05:30.884Z,12.06
2022-10-07T08:07:59.779Z,12.03
2022-10-07T08:10:27.699Z,12.07
2022-10-07T08:12:56.013Z,12.05
2022-10-07T08:15:25.421Z,12.01
2022-10-07T08:17:53.989Z,11.98
2022-10-07T08:20:21.378Z,11.99
2022-10-07T08:22:49.836Z,12.05
2022-10-07T08:25:18.506Z,12.12
2022-10-07T08:27:46.822Z,12.19
2022-10-07T08:30:14.493Z,12.21
2022-10-07T08:32:43.215Z,12.17
2022-10-07T08:35:10.588Z,12.25
2022-10-07T08:37:37.776Z,12.27
2022-10-07T08:40:06.050Z,12.32
2022-10-07T08:42:37.471Z,12.33
2022-10-07T08:45:08.743Z,12.22
2022-10-07T08:47:41.779Z,12.20
2022-10-07T08:50:19.554Z,12.30
2022-10-07T08:52:51.607Z,12.27
2022-10-07T08:55:26.233Z,12.31
2022-10-07T08:58:18.710Z,12.32
2022-10-07T09:00:50.740Z,12.31
2022-10-07T09:03:31.162Z,12.41
2022-10-07T09:06:02.485Z,12.46
2022-10-07T09:08:36.218Z,12.55
2022-10-07T09:11:16.065Z,12.59
2022-10-07T09:13:48.098Z,12.75
2022-10-07T09:16:22.078Z,12.76
2022-10-07T09:18:54.142Z,12.77
2022-10-07T09:21:27.682Z,12.86
2022-10-07T09:23:57.369Z,13.02
2022-10-07T09:26:27.545Z,13.10
2022-10-07T09:28:54.858Z,13.36
2022-10-07T09:31:25.131Z,13.34
2022-10-07T09:33:54.473Z,13.23
2022-10-07T09:36:23.179Z,13.26
2022-10-07T09:38:52.607Z,13.28
2022-10-07T09:41:25.828Z,13.35
2022-10-07T09:44:02.060Z,13.66
2022-10-07T09:46:48.515Z,13.97
2022-10-07T09:49:38.451Z,14.10
2022-10-07T09:52:16.535Z,14.14
2022-10-07T09:54:46.185Z,14.08
2022-10-07T09:57:34.079Z,13.99
2022-10-07T10:00:24.562Z,13.72
2022-10-07T10:02:55.087Z,13.49
2022-10-07T10:05:29.024Z,13.44
2022-10-07T10:08:01.449Z,13.39
2022-10-07T10:10:30.715Z,13.41
2022-10-07T10:13:00.142Z,13.52
2022-10-07T10:15:37.645Z,13.46
2022-10-07T10:18:28.096Z,13.42
2022-10-07T10:20:55.824Z,13.44
2022-10-07T10:23:29.331Z,13.46
2022-10-07T10:26:30.840Z,13.48
2022-10-07T10:29:10.245Z,13.44
2022-10-07T10:31:50.633Z,13.22
2022-10-07T10:34:28.814Z,13.26
2022-10-07T10:37:03.652Z,13.27
2022-10-07T10:39:47.690Z,13.35
2022-10-07T10:42:21.490Z,13.29
2022-10-07T10:45:09.751Z,13.34
2022-10-07T10:48:02.867Z,13.51
2022-10-07T10:50:36.404Z,13.56
2022-10-07T10:53:16.246Z,13.56
2022-10-07T10:56:00.499Z,13.59
2022-10-07T10:58:37.270Z,13.65
2022-10-07T11:01:13.805Z,13.68
2022-10-07T11:04:01.977Z,13.63
2022-10-07T11:06:33.054Z,13.68
2022-10-07T11:09:01.794Z,13.71
2022-10-07T11:11:30.711Z,13.76
2022-10-07T11:14:02.047Z,13.80
2022-10-07T11:16:36.696Z,13.89
2022-10-07T11:19:10.757Z,13.86
2022-10-07T11:21:41.405Z,13.90
2022-10-07T11:24:15.929Z,13.84
2022-10-07T11:26:47.754Z,13.81
2022-10-07T11:29:26.797Z,13.83
2022-10-07T11:31:58.516Z,13.93
2022-10-07T11:34:35.558Z,13.93
2022-10-07T11:37:10.103Z,13.97
2022-10-07T11:39:38.917Z,13.92
2022-10-07T11:42:13.964Z,13.86
2022-10-07T11:44:52.230Z,13.93
2022-10-07T11:47:26.529Z,13.98
2022-10-07T11:50:00.435Z,13.99
2022-10-07T11:52:33.769Z,14.07
2022-10-07T11:55:07.733Z,13.99
2022-10-07T11:57:39.208Z,13.97
2022-10-07T12:00:08.469Z,13.91
2022-10-07T12:02:44.443Z,13.80
2022-10-07T12:05:55.703Z,13.82
2022-10-07T12:08:30.174Z,13.77
2022-10-07T12:11:44.700Z,13.72
2022-10-07T12:14:33.769Z,13.65
2022-10-07T12:17:21.975Z,13.66
2022-10-07T12:20:46.338Z,13.68
2022-10-07T12:23:49.867Z,13.68
2022-10-07T12:26:51.215Z,13.66
2022-10-07T12:29:48.738Z,13.62
2022-10-07T12:32:40.523Z,13.63
2022-10-07T12:35:56.306Z,13.61
2022-10-07T12:38:26.492Z,13.56
2022-10-07T12:41:23.265Z,13.59
2022-10-07T12:43:58.065Z,13.57
2022-10-07T12:46:32.891Z,13.48
2022-10-07T12:49:03.441Z,13.49
2022-10-07T12:51:39.436Z,13.48
2022-10-07T12:54:15.182Z,13.50
2022-10-07T12:56:44.675Z,13.43
2022-10-07T12:59:47.590Z,13.42
2022-10-07T13:02:42.034Z,13.40
2022-10-07T13:05:37.389Z,13.46
2022-10-07T13:08:37.366Z,13.42
2022-10-07T13:11:43.164Z,13.34
2022-10-07T13:14:19.873Z,13.28
2022-10-07T13:16:54.302Z,13.24
2022-10-07T13:19:27.554Z,13.18
2022-10-07T13:22:04.633Z,13.15
2022-10-07T13:24:32.384Z,13.18
2022-10-07T13:27:00.420Z,13.07
2022-10-07T13:29:31.519Z,13.09
2022-10-07T13:32:07.345Z,12.98
2022-10-07T13:34:36.316Z,13.02
2022-10-07T13:37:18.744Z,12.95
2022-10-07T13:39:46.401Z,12.96
2022-10-07T13:42:18.005Z,12.98
2022-10-07T13:44:47.953Z,12.94
2022-10-07T13:47:20.340Z,12.92
2022-10-07T13:49:51.641Z,12.90
2022-10-07T13:52:22.077Z,12.82
2022-10-07T13:54:52.794Z,12.85
2022-10-07T13:57:21.731Z,12.84
2022-10-07T13:59:51.883Z,12.84
2022-10-07T14:02:20.677Z,12.90
2022-10-07T14:04:59.596Z,12.82
2022-10-07T14:07:27.973Z,12.80
2022-10-07T14:10:05.069Z,12.74
2022-10-07T14:12:36.914Z,12.68
2022-10-07T14:15:07.153Z,12.64
2022-10-07T14:17:41.168Z,12.62
2022-10-07T14:20:20.572Z,12.56
2022-10-07T14:22:50.553Z,12.59
2022-10-07T14:25:20.270Z,12.59
2022-10-07T14:28:15.700Z,12.66
2022-10-07T14:31:02.409Z,12.56
2022-10-07T14:33:58.976Z,12.57
2022-10-07T14:36:27.785Z,12.57
2022-10-07T14:38:59.992Z,12.49
2022-10-07T14:41:29.159Z,12.53
2022-10-07T14:44:00.472Z,12.45
2022-10-07T14:46:29.138Z,12.36
2022-10-07T14:48:56.436Z,12.33
2022-10-07T14:51:27.103Z,12.33
2022-10-07T14:54:01.169Z,12.33
2022-10-07T14:56:31.382Z,12.30
2022-10-07T14:58:58.696Z,12.25
2022-10-07T15:01:29.361Z,12.22
2022-10-07T15:03:57.024Z,12.21
2022-10-07T15:06:25.134Z,12.18
2022-10-07T15:08:52.520Z,12.15
2022-10-07T15:11:21.917Z,12.15
2022-10-07T15:13:50.250Z,12.12
2022-10-07T15:16:19.263Z,12.08
2022-10-07T15:18:52.078Z,12.09
2022-10-07T15:21:19.953Z,12.02
2022-10-07T15:23:51.071Z,11.99
2022-10-07T15:26:19.324Z,12.00
2022-10-07T15:28:50.446Z,11.96
2022-10-07T15:31:17.782Z,11.94
2022-10-07T15:33:45.800Z,11.81
2022-10-07T15:36:16.188Z,11.80
2022-10-07T15:38:43.778Z,11.76
2022-10-07T15:41:29.579Z,11.67
2022-10-07T15:43:59.654Z,11.67
2022-10-07T15:46:28.037Z,11.62
2022-10-07T15:48:56.518Z,11.56
2022-10-07T15:51:24.741Z,11.54
2022-10-07T15:53:52.086Z,11.49
2022-10-07T15:56:19.368Z,11.51
2022-10-07T15:58:46.689Z,11.46
2022-10-07T16:01:15.690Z,11.51
2022-10-07T16:03:45.222Z,11.43
2022-10-07T16:06:16.199Z,11.41
2022-10-07T16:08:43.512Z,11.40
2022-10-07T16:11:12.500Z,11.41
2022-10-07T16:13:41.161Z,11.40
2022-10-07T16:16:11.724Z,11.39
2022-10-07T16:18:42.093Z,11.35
2022-10-07T16:21:12.229Z,11.43
2022-10-07T16:23:41.691Z,11.42
2022-10-07T16:26:10.918Z,11.39
2022-10-07T16:28:58.758Z,11.37
2022-10-07T16:31:26.505Z,11.33
2022-10-07T16:33:55.853Z,11.28
2022-10-07T16:36:24.765Z,11.24
2022-10-07T16:38:53.229Z,11.23
2022-10-07T16:41:21.694Z,11.24
2022-10-07T16:43:50.046Z,11.20
2022-10-07T16:46:18.818Z,11.22
2022-10-07T16:48:48.039Z,11.20
2022-10-07T16:51:18.457Z,11.13
2022-10-07T16:53:48.983Z,11.11
2022-10-07T16:56:17.995Z,11.07
2022-10-07T16:58:46.253Z,11.07
2022-10-07T17:01:15.187Z,11.02
2022-10-07T17:03:44.381Z,11.09
2022-10-07T17:06:13.824Z,11.07
2022-10-07T17:08:47.440Z,11.08
2022-10-07T17:11:29.936Z,11.04
2022-10-07T17:13:59.151Z,11.07
2022-10-07T17:16:27.134Z,10.98
2022-10-07T17:18:54.639Z,10.91
2022-10-07T17:21:22.288Z,10.89
2022-10-07T17:23:51.125Z,10.87
2022-10-07T17:26:20.989Z,10.82
2022-10-07T17:28:49.878Z,10.76
2022-10-07T17:31:18.430Z,10.73
2022-10-07T17:33:45.847Z,10.73
2022-10-07T17:36:14.674Z,10.70
2022-10-07T17:38:44.769Z,10.65
2022-10-07T17:41:16.998Z,10.57
2022-10-07T17:43:44.348Z,10.56
2022-10-07T17:46:14.126Z,10.51
2022-10-07T17:48:45.825Z,10.49
2022-10-07T17:51:15.268Z,10.43
2022-10-07T17:53:43.093Z,10.43
2022-10-07T17:56:14.513Z,10.39
2022-10-07T17:58:43.793Z,10.27
2022-10-07T18:01:16.130Z,10.34
2022-10-07T18:03:43.867Z,10.32
2022-10-07T18:06:11.820Z,10.28
2022-10-07T18:08:41.657Z,10.25
2022-10-07T18:11:09.267Z,10.19
2022-10-07T18:13:56.687Z,10.16
2022-10-07T18:16:24.184Z,10.11
2022-10-07T18:18:53.892Z,10.12
2022-10-07T18:21:22.525Z,10.08
2022-10-07T18:23:49.844Z,10.06
2022-10-07T18:26:17.227Z,10.02
2022-10-07T18:28:46.954Z,9.97
2022-10-07T18:31:16.500Z,9.90
2022-10-07T18:33:44.071Z,9.88
2022-10-07T18:36:13.698Z,9.87
2022-10-07T18:38:42.788Z,9.69
2022-10-07T18:41:11.849Z,9.87
2022-10-07T18:43:39.155Z,9.90
2022-10-07T18:46:10.832Z,9.84
2022-10-07T18:48:39.609Z,9.81
2022-10-07T18:51:07.409Z,9.78
2022-10-07T18:53:36.830Z,9.78
2022-10-07T18:56:06.223Z,9.71
2022-10-07T18:58:34.653Z,9.69
2022-10-07T19:01:07.431Z,9.65
2022-10-07T19:03:37.641Z,9.61
2022-10-07T19:06:06.103Z,9.57
2022-10-07T19:08:33.795Z,9.50
2022-10-07T19:11:05.167Z,9.51
2022-10-07T19:13:48.550Z,9.51
2022-10-07T19:16:18.752Z,9.45
2022-10-07T19:18:47.687Z,9.51
2022-10-07T19:21:15.787Z,9.46
2022-10-07T19:23:43.710Z,9.46
2022-10-07T19:26:12.690Z,9.44
2022-10-07T19:28:40.468Z,9.45
2022-10-07T19:31:13.556Z,9.36
2022-10-07T19:33:43.047Z,9.40
2022-10-07T19:36:11.731Z,9.39
2022-10-07T19:38:43.370Z,9.38
2022-10-07T19:41:12.906Z,9.36
2022-10-07T19:43:41.122Z,9.38
2022-10-07T19:46:09.378Z,9.39
2022-10-07T19:48:38.693Z,9.40
2022-10-07T19:51:09.367Z,9.36
2022-10-07T19:53:36.902Z,9.37
2022-10-07T19:56:06.401Z,9.34
2022-10-07T19:58:33.854Z,9.32
2022-10-07T20:01:06.044Z,9.24
2022-10-07T20:03:33.584Z,9.28
2022-10-07T20:06:05.238Z,9.25
2022-10-07T20:08:34.953Z,9.29
2022-10-07T20:11:03.766Z,9.29
2022-10-07T20:13:32.939Z,9.27
2022-10-07T20:16:05.393Z,9.20
2022-10-07T20:18:32.536Z,9.22
2022-10-07T20:21:01.047Z,9.19
2022-10-07T20:23:33.697Z,9.14
2022-10-07T20:26:05.617Z,9.13
2022-10-07T20:28:35.429Z,9.12
2022-10-07T20:31:04.868Z,9.09
2022-10-07T20:33:37.166Z,9.06
2022-10-07T20:36:04.642Z,9.03
2022-10-07T20:38:51.940Z,8.98
2022-10-07T20:41:37.530Z,8.93
2022-10-07T20:44:04.910Z,8.93
2022-10-07T20:46:32.830Z,8.88
2022-10-07T20:49:00.657Z,8.86
2022-10-07T20:51:28.131Z,8.82
2022-10-07T20:53:56.691Z,8.77
2022-10-07T20:56:23.981Z,8.76
2022-10-07T20:58:52.269Z,8.73
2022-10-07T21:01:19.722Z,8.70
2022-10-07T21:03:46.973Z,8.72
2022-10-07T21:06:14.164Z,8.70
2022-10-07T21:08:41.746Z,8.71
2022-10-07T21:11:10.416Z,8.71
2022-10-07T21:13:37.970Z,8.70
2022-10-07T21:16:05.902Z,8.65
2022-10-07T21:18:33.292Z,8.64
2022-10-07T21:21:00.571Z,8.62
2022-10-07T21:23:29.349Z,8.61
2022-10-07T21:26:00.911Z,8.61
2022-10-07T21:28:32.947Z,8.59
2022-10-07T21:31:02.925Z,8.60
2022-10-07T21:33:30.864Z,8.59
2022-10-07T21:36:00.109Z,8.60
2022-10-07T21:38:27.909Z,8.59
2022-10-07T21:40:55.324Z,8.56
2022-10-07T21:43:22.941Z,8.57
2022-10-07T21:45:51.769Z,8.54
2022-10-07T21:48:19.445Z,8.55
2022-10-07T21:50:54.016Z,8.55
2022-10-07T21:53:21.475Z,8.51
2022-10-07T21:55:48.944Z,8.51
2022-10-07T21:58:16.871Z,8.50
2022-10-07T22:00:44.257Z,8.48
2022-10-07T22:03:12.968Z,8.47
2022-10-07T22:05:40.594Z,8.49
2022-10-07T22:08:30.528Z,8.49
2022-10-07T22:11:00.341Z,8.47
2022-10-07T22:13:28.193Z,8.44
2022-10-07T22:15:56.084Z,8.44
2022-10-07T22:18:25.050Z,8.44
2022-10-07T22:20:52.246Z,8.45
2022-10-07T22:23:20.032Z,8.41
2022-10-07T22:25:49.009Z,8.39
2022-10-07T22:28:16.396Z,8.38
2022-10-07T22:30:43.732Z,8.38
2022-10-07T22:33:15.297Z,8.36
2022-10-07T22:35:44.200Z,8.35
2022-10-07T22:38:11.374Z,8.29
2022-10-07T22:40:39.100Z,8.26
2022-10-07T22:43:06.436Z,8.27
2022-10-07T22:45:33.906Z,8.25
2022-10-07T22:48:01.245Z,8.26
2022-10-07T22:50:28.454Z,8.23
2022-10-07T22:52:57.424Z,8.20
2022-10-07T22:55:24.811Z,8.19
2022-10-07T22:57:53.187Z,8.17
2022-10-07T23:00:22.345Z,8.14
2022-10-07T23:02:49.895Z,8.13
2022-10-07T23:05:17.388Z,8.14
2022-10-07T23:07:44.845Z,8.18
2022-10-07T23:10:13.574Z,8.20
2022-10-07T23:12:40.782Z,8.18
2022-10-07T23:15:08.628Z,8.20
2022-10-07T23:17:36.419Z,8.22
2022-10-07T23:20:04.444Z,8.24
2022-10-07T23:22:31.587Z,8.30
2022-10-07T23:24:58.797Z,8.31
2022-10-07T23:27:27.375Z,8.32
2022-10-07T23:29:54.858Z,8.32
2022-10-07T23:32:22.027Z,8.31
2022-10-07T23:34:49.201Z,8.32
2022-10-07T23:37:16.694Z,8.32
2022-10-07T23:39:43.973Z,8.30
2022-10-07T23:42:11.157Z,8.23
2022-10-07T23:44:39.701Z,8.18
2022-10-07T23:47:07.055Z,8.15
2022-10-07T23:49:34.365Z,8.16
2022-10-07T23:52:01.735Z,8.14
2022-10-07T23:54:29.259Z,8.08
2022-10-07T23:56:56.553Z,8.03
2022-10-07T23:59:24.009Z,8.05
